Portada
METAR-TAF:

METAR-TAF

Aeroports :

Villavicencio, Colòmbia

latitud: 04-10N, longitud: 073-37W, altitud: 423 m

Observació

L'informe es va fer fa 16 minuts, a les 19:00 UTC
Vent 4 kt del Est/Nord-Est
Temperatura 30°C
Humitat 59%
Pressió 1010 hPa
Visibilitat 10 km o més
Núvols disperses a una alçada de 2300 ft
Núvols disperses a una alçada de 20000 ft

METAR: SKVV 211900Z 07004KT 9999 SCT023 SCT200 30/21 A2982

Hora: 14:16 (19:16 UTC)


TAF: manca

Observacions i pronòstics meteorològics de més de 4000 aeroports (METAR i TAF).

Les estacions disponibles són els punts grocs i vermells al mapa.

Posi el ratolí al punt desitjat per veure el nom de l'estació.

Feu clic per veure les observacions i els pronòstics meteorològics.

Per canviar el mapa: feu clic els botons verds amb una creu de color negre per apropar; al botó verd amb un guió per allunyar la imatge; o en les fletxes verdes per a mapes adjacents.


METAR-TAF: